createdAt,value
2018-11-10T00:00:15.186Z,8.75
2018-11-10T00:02:42.546Z,8.76
2018-11-10T00:05:10.036Z,8.77
2018-11-10T00:07:37.466Z,8.76
2018-11-10T00:10:05.044Z,8.77
2018-11-10T00:12:32.225Z,8.69
2018-11-10T00:14:59.440Z,8.64
2018-11-10T00:17:26.667Z,8.58
2018-11-10T00:19:53.921Z,8.57
2018-11-10T00:22:21.147Z,8.52
2018-11-10T00:24:48.414Z,8.45
2018-11-10T00:27:15.755Z,8.25
2018-11-10T00:29:43.045Z,8.20
2018-11-10T00:32:10.296Z,8.12
2018-11-10T00:34:37.612Z,8.16
2018-11-10T00:37:04.926Z,8.24
2018-11-10T00:39:32.249Z,8.28
2018-11-10T00:41:59.535Z,8.34
2018-11-10T00:44:26.861Z,8.34
2018-11-10T00:46:54.115Z,8.37
2018-11-10T00:49:21.791Z,8.37
2018-11-10T00:51:49.021Z,8.34
2018-11-10T00:54:16.307Z,8.32
2018-11-10T00:56:43.558Z,8.32
2018-11-10T00:59:10.796Z,8.35
2018-11-10T01:01:38.054Z,8.38
2018-11-10T01:04:05.619Z,8.42
2018-11-10T01:06:32.942Z,8.34
2018-11-10T01:09:00.200Z,8.27
2018-11-10T01:11:27.514Z,8.14
2018-11-10T01:13:54.786Z,8.16
2018-11-10T01:16:22.015Z,8.13
2018-11-10T01:18:49.339Z,7.96
2018-11-10T01:21:16.662Z,7.94
2018-11-10T01:23:44.140Z,8.05
2018-11-10T01:26:11.477Z,8.12
2018-11-10T01:28:38.821Z,6.86
2018-11-10T01:31:06.268Z,8.33
2018-11-10T01:33:33.626Z,7.88
2018-11-10T01:36:00.846Z,8.50
2018-11-10T01:38:28.088Z,8.35
2018-11-10T01:40:55.353Z,8.32
2018-11-10T01:43:22.603Z,8.28
2018-11-10T01:45:49.882Z,8.23
2018-11-10T01:48:17.145Z,8.22
2018-11-10T01:50:44.455Z,8.22
2018-11-10T01:53:11.712Z,8.10
2018-11-10T01:55:38.944Z,8.10
2018-11-10T01:58:06.189Z,8.16
2018-11-10T02:00:33.414Z,8.21
2018-11-10T02:03:00.752Z,8.18
2018-11-10T02:05:27.961Z,8.15
2018-11-10T02:07:55.257Z,8.12
2018-11-10T02:10:22.468Z,8.01
2018-11-10T02:12:49.735Z,7.84
2018-11-10T02:15:17.125Z,7.75
2018-11-10T02:17:44.352Z,7.71
2018-11-10T02:20:12.841Z,7.68
2018-11-10T02:22:40.373Z,7.68
2018-11-10T02:25:08.756Z,7.67
2018-11-10T02:27:36.025Z,7.63
2018-11-10T02:30:03.461Z,7.61
2018-11-10T02:32:30.726Z,7.59
2018-11-10T02:34:57.995Z,7.60
2018-11-10T02:37:25.278Z,7.68
2018-11-10T02:39:52.552Z,7.68
2018-11-10T02:45:12.067Z,7.70
2018-11-10T02:47:39.363Z,7.65
2018-11-10T02:50:06.647Z,7.63
2018-11-10T02:52:33.974Z,7.55
2018-11-10T02:55:01.236Z,7.54
2018-11-10T02:57:28.472Z,7.54
2018-11-10T02:59:55.776Z,7.61
2018-11-10T03:02:23.000Z,7.70
2018-11-10T03:04:50.234Z,7.75
2018-11-10T03:07:17.456Z,7.87
2018-11-10T03:09:44.757Z,8.00
2018-11-10T03:12:11.986Z,7.97
2018-11-10T03:14:39.276Z,7.97
2018-11-10T03:17:06.452Z,8.00
2018-11-10T03:19:33.770Z,7.99
2018-11-10T03:22:00.976Z,8.01
2018-11-10T03:24:28.254Z,7.97
2018-11-10T03:26:55.529Z,7.97
2018-11-10T03:29:22.788Z,7.98
2018-11-10T03:31:50.051Z,8.07
2018-11-10T03:34:17.277Z,8.08
2018-11-10T03:36:44.518Z,8.13
2018-11-10T03:39:12.618Z,8.16
2018-11-10T03:41:39.940Z,8.13
2018-11-10T03:44:07.377Z,8.01
2018-11-10T03:46:34.687Z,7.93
2018-11-10T03:49:01.981Z,7.98
2018-11-10T03:51:29.296Z,8.10
2018-11-10T03:53:56.538Z,8.20
2018-11-10T03:56:23.839Z,8.33
2018-11-10T03:58:51.079Z,8.38
2018-11-10T04:01:18.425Z,8.37
2018-11-10T04:03:45.687Z,8.39
2018-11-10T04:06:12.924Z,8.40
2018-11-10T04:08:40.094Z,8.41
2018-11-10T04:11:07.335Z,8.49
2018-11-10T04:13:34.576Z,8.56
2018-11-10T04:16:01.859Z,8.59
2018-11-10T04:18:29.117Z,8.58
2018-11-10T04:20:56.409Z,8.63
2018-11-10T04:23:23.618Z,8.71
2018-11-10T04:25:50.830Z,8.70
2018-11-10T04:28:18.077Z,8.71
2018-11-10T04:30:45.326Z,8.77
2018-11-10T04:33:12.580Z,8.77
2018-11-10T04:35:39.806Z,8.78
2018-11-10T04:38:07.005Z,8.74
2018-11-10T04:40:34.341Z,8.63
2018-11-10T04:43:01.599Z,8.57
2018-11-10T04:45:28.805Z,8.48
2018-11-10T04:47:56.065Z,8.47
2018-11-10T04:50:23.249Z,8.47
2018-11-10T04:52:50.500Z,8.48
2018-11-10T04:55:17.732Z,8.54
2018-11-10T04:57:44.965Z,8.70
2018-11-10T05:00:14.318Z,8.73
2018-11-10T05:02:42.105Z,8.78
2018-11-10T05:05:09.376Z,8.74
2018-11-10T05:07:36.844Z,8.54
2018-11-10T05:10:04.768Z,8.83
2018-11-10T05:12:32.015Z,8.80
2018-11-10T05:14:59.267Z,8.83
2018-11-10T05:17:26.538Z,8.78
2018-11-10T05:19:53.805Z,8.81
2018-11-10T05:22:21.248Z,8.81
2018-11-10T05:24:48.568Z,8.86
2018-11-10T05:27:15.892Z,8.87
2018-11-10T05:29:43.230Z,8.92
2018-11-10T05:32:10.592Z,8.96
2018-11-10T05:34:37.904Z,8.91
2018-11-10T05:37:05.284Z,8.91
2018-11-10T05:39:32.575Z,8.92
2018-11-10T05:41:59.810Z,8.95
2018-11-10T05:44:27.010Z,8.91
2018-11-10T05:46:54.246Z,8.88
2018-11-10T05:49:21.532Z,8.93
2018-11-10T05:51:48.803Z,9.01
2018-11-10T05:54:16.018Z,9.04
2018-11-10T05:56:43.273Z,9.06
2018-11-10T05:59:10.497Z,9.01
2018-11-10T06:01:37.804Z,9.12
2018-11-10T06:04:05.045Z,9.32
2018-11-10T06:06:32.305Z,9.34
2018-11-10T06:08:59.590Z,9.35
2018-11-10T06:11:26.884Z,9.41
2018-11-10T06:13:54.325Z,9.52
2018-11-10T06:16:21.521Z,9.38
2018-11-10T06:18:48.859Z,9.29
2018-11-10T06:21:16.106Z,9.35
2018-11-10T06:23:43.384Z,9.31
2018-11-10T06:26:10.738Z,9.32
2018-11-10T06:28:37.984Z,9.28
2018-11-10T06:31:05.634Z,9.35
2018-11-10T06:33:32.880Z,9.35
2018-11-10T06:36:00.158Z,9.31
2018-11-10T06:38:27.397Z,9.24
2018-11-10T06:40:54.656Z,9.17
2018-11-10T06:43:21.981Z,9.15
2018-11-10T06:45:49.188Z,9.20
2018-11-10T06:48:16.424Z,9.21
2018-11-10T06:50:43.692Z,9.29
2018-11-10T06:53:11.025Z,9.30
2018-11-10T06:55:38.307Z,9.31
2018-11-10T06:58:05.599Z,9.34
2018-11-10T07:00:32.821Z,9.37
2018-11-10T07:03:00.140Z,9.42
2018-11-10T07:05:27.446Z,9.42
2018-11-10T07:07:54.793Z,9.45
2018-11-10T07:10:22.047Z,9.47
2018-11-10T07:12:50.472Z,9.50
2018-11-10T07:15:23.932Z,9.38
2018-11-10T07:17:51.470Z,9.42
2018-11-10T07:20:19.263Z,9.52
2018-11-10T07:22:46.460Z,9.53
2018-11-10T07:25:13.730Z,9.51
2018-11-10T07:27:40.958Z,9.49
2018-11-10T07:30:10.045Z,9.57
2018-11-10T07:32:37.414Z,9.66
2018-11-10T07:35:05.191Z,9.69
2018-11-10T07:37:32.530Z,9.60
2018-11-10T07:39:59.756Z,9.61
2018-11-10T07:42:26.966Z,9.55
2018-11-10T07:44:54.195Z,9.70
2018-11-10T07:47:21.510Z,9.75
2018-11-10T07:49:48.776Z,9.81
2018-11-10T07:52:15.992Z,9.93
2018-11-10T07:54:43.251Z,10.01
2018-11-10T07:57:10.500Z,10.08
2018-11-10T07:59:37.765Z,10.04
2018-11-10T08:02:05.113Z,10.09
2018-11-10T08:04:32.340Z,10.10
2018-11-10T08:06:59.582Z,10.20
2018-11-10T08:09:26.759Z,10.25
2018-11-10T08:11:54.063Z,10.29
2018-11-10T08:14:21.358Z,10.29
2018-11-10T08:16:48.614Z,10.42
2018-11-10T08:19:15.796Z,10.34
2018-11-10T08:21:43.036Z,10.35
2018-11-10T08:24:10.223Z,10.29
2018-11-10T08:26:37.464Z,10.37
2018-11-10T08:29:05.104Z,10.39
2018-11-10T08:31:32.404Z,10.44
2018-11-10T08:33:59.726Z,10.49
2018-11-10T08:36:26.996Z,10.41
2018-11-10T08:38:54.258Z,10.44
2018-11-10T08:41:21.467Z,10.49
2018-11-10T08:43:48.773Z,10.50
2018-11-10T08:46:16.010Z,10.61
2018-11-10T08:48:43.341Z,10.71
2018-11-10T08:51:10.652Z,10.79
2018-11-10T08:53:37.890Z,10.77
2018-11-10T08:56:05.722Z,10.81
2018-11-10T08:58:32.973Z,10.88
2018-11-10T09:01:00.251Z,10.80
2018-11-10T09:03:28.100Z,10.87
2018-11-10T09:05:55.343Z,10.95
2018-11-10T09:08:22.591Z,11.02
2018-11-10T09:10:49.867Z,11.02
2018-11-10T09:13:17.115Z,11.18
2018-11-10T09:15:44.357Z,11.13
2018-11-10T09:18:11.602Z,11.17
2018-11-10T09:20:38.899Z,11.17
2018-11-10T09:23:06.114Z,11.23
2018-11-10T09:25:33.381Z,11.30
2018-11-10T09:28:00.635Z,11.24
2018-11-10T09:30:27.857Z,11.28
2018-11-10T09:32:55.083Z,11.36
2018-11-10T09:35:22.299Z,11.40
2018-11-10T09:37:49.544Z,11.43
2018-11-10T09:40:17.108Z,11.76
2018-11-10T09:42:44.554Z,12.03
2018-11-10T09:45:13.138Z,11.99
2018-11-10T09:47:40.703Z,11.94
2018-11-10T09:50:13.329Z,12.04
2018-11-10T09:52:41.008Z,12.17
2018-11-10T09:55:08.976Z,12.33
2018-11-10T09:57:36.910Z,12.32
2018-11-10T10:00:07.625Z,12.40
2018-11-10T10:02:35.183Z,12.24
2018-11-10T10:05:02.116Z,12.10
2018-11-10T10:07:29.333Z,11.91
2018-11-10T10:09:56.577Z,11.92
2018-11-10T10:12:23.842Z,11.99
2018-11-10T10:14:51.020Z,11.95
2018-11-10T10:17:18.255Z,11.89
2018-11-10T10:19:45.481Z,11.95
2018-11-10T10:22:12.792Z,11.93
2018-11-10T10:24:40.029Z,12.07
2018-11-10T10:27:07.291Z,12.08
2018-11-10T10:29:34.779Z,12.12
2018-11-10T10:32:02.051Z,12.06
2018-11-10T10:34:29.392Z,12.11
2018-11-10T10:36:56.619Z,12.20
2018-11-10T10:39:23.893Z,12.28
2018-11-10T10:41:51.147Z,12.25
2018-11-10T10:44:18.447Z,12.29
2018-11-10T10:46:45.637Z,12.36
2018-11-10T10:49:15.599Z,12.37
2018-11-10T10:51:42.884Z,12.41
2018-11-10T10:54:10.163Z,12.52
2018-11-10T10:56:37.653Z,12.63
2018-11-10T10:59:05.019Z,12.55
2018-11-10T11:01:38.024Z,12.56
2018-11-10T11:04:11.177Z,12.68
2018-11-10T11:06:38.453Z,12.60
2018-11-10T11:09:06.429Z,12.70
2018-11-10T11:11:34.028Z,12.79
2018-11-10T11:14:01.278Z,12.95
2018-11-10T11:16:28.524Z,13.18
2018-11-10T11:18:55.772Z,13.07
2018-11-10T11:21:23.001Z,13.01
2018-11-10T11:23:50.333Z,12.94
2018-11-10T11:26:17.608Z,13.02
2018-11-10T11:28:44.814Z,13.20
2018-11-10T11:31:12.165Z,13.07
2018-11-10T11:33:39.557Z,13.03
2018-11-10T11:36:06.821Z,13.25
2018-11-10T11:38:34.024Z,13.19
2018-11-10T11:41:01.247Z,13.14
2018-11-10T11:43:28.966Z,13.32
2018-11-10T11:45:56.217Z,13.51
2018-11-10T11:48:24.052Z,13.58
2018-11-10T11:50:51.579Z,13.67
2018-11-10T11:53:18.866Z,13.80
2018-11-10T11:55:46.123Z,13.84
2018-11-10T11:58:13.561Z,13.97
2018-11-10T12:00:40.669Z,14.12
2018-11-10T12:03:07.973Z,13.98
2018-11-10T12:05:35.200Z,14.15
2018-11-10T12:08:02.464Z,14.40
2018-11-10T12:10:29.928Z,14.40
2018-11-10T12:12:57.416Z,14.54
2018-11-10T12:15:24.901Z,14.79
2018-11-10T12:17:52.329Z,14.92
2018-11-10T12:20:20.084Z,15.09
2018-11-10T12:22:47.363Z,15.23
2018-11-10T12:25:19.381Z,15.17
2018-11-10T12:27:47.298Z,15.11
2018-11-10T12:30:14.605Z,15.25
2018-11-10T12:32:41.886Z,15.34
2018-11-10T12:35:10.771Z,15.39
2018-11-10T12:37:38.015Z,15.87
2018-11-10T12:40:07.317Z,16.40
2018-11-10T12:42:34.961Z,16.38
2018-11-10T12:45:02.279Z,16.29
2018-11-10T12:47:29.586Z,16.20
2018-11-10T12:49:56.824Z,15.90
2018-11-10T12:52:24.075Z,15.89
2018-11-10T12:54:51.427Z,15.78
2018-11-10T12:57:18.634Z,15.80
2018-11-10T12:59:45.910Z,15.85
2018-11-10T13:02:13.197Z,16.02
2018-11-10T13:04:40.461Z,15.91
2018-11-10T13:07:07.774Z,15.91
2018-11-10T13:09:34.993Z,15.96
2018-11-10T13:12:02.381Z,16.02
2018-11-10T13:14:29.584Z,16.10
2018-11-10T13:16:56.868Z,16.14
2018-11-10T13:19:24.129Z,16.17
2018-11-10T13:21:51.437Z,16.10
2018-11-10T13:24:18.783Z,16.22
2018-11-10T13:26:45.956Z,16.12
2018-11-10T13:29:13.255Z,15.84
2018-11-10T13:31:40.534Z,15.78
2018-11-10T13:34:07.709Z,15.70
2018-11-10T13:36:35.042Z,15.59
2018-11-10T13:39:03.549Z,15.44
2018-11-10T13:41:30.736Z,15.52
2018-11-10T13:43:58.137Z,15.57
2018-11-10T13:46:25.311Z,15.52
2018-11-10T13:48:52.561Z,15.61
2018-11-10T13:51:19.900Z,15.70
2018-11-10T13:53:47.237Z,15.46
2018-11-10T13:56:16.705Z,15.40
2018-11-10T13:58:43.995Z,15.42
2018-11-10T14:01:11.217Z,15.46
2018-11-10T14:03:38.494Z,15.51
2018-11-10T14:06:05.776Z,15.58
2018-11-10T14:08:32.995Z,15.63
2018-11-10T14:11:00.240Z,15.67
2018-11-10T14:13:27.469Z,15.41
2018-11-10T14:15:54.741Z,15.25
2018-11-10T14:18:22.037Z,15.23
2018-11-10T14:20:49.288Z,15.24
2018-11-10T14:23:16.517Z,15.26
2018-11-10T14:25:43.895Z,15.26
2018-11-10T14:28:11.152Z,15.20
2018-11-10T14:30:38.395Z,15.19
2018-11-10T14:33:05.988Z,15.23
2018-11-10T14:35:33.204Z,15.19
2018-11-10T14:38:00.446Z,15.21
2018-11-10T14:40:27.681Z,15.21
2018-11-10T14:42:54.898Z,15.18
2018-11-10T14:45:22.171Z,15.14
2018-11-10T14:47:49.364Z,15.20
2018-11-10T14:50:17.414Z,15.16
2018-11-10T14:52:44.753Z,15.10
2018-11-10T14:55:12.443Z,15.08
2018-11-10T14:57:39.877Z,15.12
2018-11-10T15:00:09.242Z,15.09
2018-11-10T15:02:36.476Z,14.99
2018-11-10T15:05:04.149Z,14.97
2018-11-10T15:07:31.395Z,14.90
2018-11-10T15:09:58.660Z,14.89
2018-11-10T15:12:25.888Z,14.90
2018-11-10T15:14:53.098Z,14.83
2018-11-10T15:17:20.346Z,14.79
2018-11-10T15:19:47.604Z,14.78
2018-11-10T15:22:14.849Z,14.80
2018-11-10T15:24:42.096Z,14.80
2018-11-10T15:27:09.350Z,14.72
2018-11-10T15:29:36.659Z,14.73
2018-11-10T15:32:04.120Z,14.66
2018-11-10T15:34:31.330Z,14.64
2018-11-10T15:36:58.616Z,14.60
2018-11-10T15:39:25.979Z,14.55
2018-11-10T15:41:53.274Z,14.52
2018-11-10T15:44:20.530Z,14.53
2018-11-10T15:46:47.752Z,14.47
2018-11-10T15:49:17.031Z,14.39
2018-11-10T15:51:44.305Z,14.34
2018-11-10T15:54:11.604Z,14.28
2018-11-10T15:56:38.905Z,14.23
2018-11-10T15:59:06.229Z,14.13
2018-11-10T16:01:33.441Z,14.07
2018-11-10T16:04:00.746Z,14.21
2018-11-10T16:06:28.005Z,14.21
2018-11-10T16:08:55.248Z,14.11
2018-11-10T16:11:22.446Z,14.03
2018-11-10T16:13:49.731Z,13.99
2018-11-10T16:16:17.025Z,13.97
2018-11-10T16:18:44.273Z,13.94
2018-11-10T16:21:11.496Z,13.87
2018-11-10T16:23:38.770Z,13.86
2018-11-10T16:26:06.009Z,13.78
2018-11-10T16:28:33.220Z,13.78
2018-11-10T16:31:00.438Z,13.73
2018-11-10T16:33:27.661Z,13.67
2018-11-10T16:35:54.956Z,13.64
2018-11-10T16:38:22.471Z,13.72
2018-11-10T16:40:49.655Z,13.71
2018-11-10T16:43:16.878Z,13.71
2018-11-10T16:45:44.190Z,13.72
2018-11-10T16:48:11.451Z,13.65
2018-11-10T16:50:38.663Z,13.58
2018-11-10T16:53:05.929Z,13.49
2018-11-10T16:55:33.216Z,13.42
2018-11-10T16:58:00.486Z,13.34
2018-11-10T17:00:27.719Z,13.34
2018-11-10T17:02:54.992Z,13.30
2018-11-10T17:05:24.167Z,13.33
2018-11-10T17:07:51.444Z,13.27
2018-11-10T17:10:18.729Z,13.26
2018-11-10T17:12:46.010Z,13.26
2018-11-10T17:15:13.318Z,13.27
2018-11-10T17:17:40.563Z,13.27
2018-11-10T17:20:09.680Z,13.20
2018-11-10T17:22:37.091Z,13.22
2018-11-10T17:25:05.102Z,13.21
2018-11-10T17:27:32.343Z,13.26
2018-11-10T17:29:59.661Z,13.26
2018-11-10T17:32:26.869Z,13.21
2018-11-10T17:34:54.216Z,13.21
2018-11-10T17:37:21.500Z,13.28
2018-11-10T17:39:49.090Z,13.28
2018-11-10T17:42:16.263Z,13.12
2018-11-10T17:44:43.836Z,13.12
2018-11-10T17:47:11.265Z,12.96
2018-11-10T17:49:38.520Z,12.97
2018-11-10T17:52:07.751Z,13.04
2018-11-10T17:54:35.025Z,13.01
2018-11-10T17:57:02.200Z,13.09
2018-11-10T17:59:29.536Z,13.10
2018-11-10T18:01:57.131Z,13.05
2018-11-10T18:04:24.219Z,12.98
2018-11-10T18:06:51.490Z,12.99
2018-11-10T18:09:18.721Z,13.07
2018-11-10T18:11:45.977Z,12.99
2018-11-10T18:14:13.276Z,13.05
2018-11-10T18:16:40.529Z,13.08
2018-11-10T18:19:07.912Z,13.14
2018-11-10T18:21:35.133Z,13.19
2018-11-10T18:24:02.481Z,13.17
2018-11-10T18:26:29.810Z,13.17
2018-11-10T18:28:57.045Z,13.15
2018-11-10T18:31:24.319Z,13.17
2018-11-10T18:33:51.535Z,13.16
2018-11-10T18:36:18.882Z,13.20
2018-11-10T18:38:46.286Z,13.22
2018-11-10T18:41:13.544Z,13.28
2018-11-10T18:43:41.465Z,13.31
2018-11-10T18:46:10.312Z,13.31
2018-11-10T18:48:37.874Z,13.23
2018-11-10T18:51:07.088Z,13.34
2018-11-10T18:53:36.117Z,13.39
2018-11-10T18:56:03.410Z,13.39
2018-11-10T18:58:32.792Z,13.40
2018-11-10T19:01:01.733Z,13.37
2018-11-10T19:03:28.981Z,13.35
2018-11-10T19:05:58.355Z,13.29
2018-11-10T19:08:25.601Z,13.33
2018-11-10T19:10:53.031Z,13.30
2018-11-10T19:13:20.262Z,13.23
2018-11-10T19:15:47.466Z,13.25
2018-11-10T19:18:14.764Z,13.24
2018-11-10T19:20:42.084Z,13.29
2018-11-10T19:23:09.445Z,13.29
2018-11-10T19:25:37.065Z,13.33
2018-11-10T19:28:04.720Z,13.33
2018-11-10T19:30:31.968Z,13.22
2018-11-10T19:32:59.214Z,13.13
2018-11-10T19:35:26.602Z,13.04
2018-11-10T19:37:53.840Z,13.02
2018-11-10T19:40:21.106Z,12.90
2018-11-10T19:42:48.353Z,12.81
2018-11-10T19:45:15.621Z,12.76
2018-11-10T19:47:43.886Z,12.74
2018-11-10T19:50:11.802Z,12.81
2018-11-10T19:52:39.042Z,12.84
2018-11-10T19:55:08.306Z,12.77
2018-11-10T19:57:35.775Z,12.78
2018-11-10T20:00:03.634Z,12.83
2018-11-10T20:02:30.884Z,12.88
2018-11-10T20:04:58.177Z,12.82
2018-11-10T20:07:25.459Z,12.90
2018-11-10T20:09:52.726Z,12.87
2018-11-10T20:14:52.206Z,12.88
2018-11-10T20:17:19.431Z,12.88
2018-11-10T20:19:46.820Z,12.84
2018-11-10T20:22:13.956Z,12.89
2018-11-10T20:24:41.183Z,12.78
2018-11-10T20:27:08.437Z,12.87
2018-11-10T20:29:35.748Z,12.87
2018-11-10T20:32:02.981Z,12.91
2018-11-10T20:34:30.171Z,12.94
2018-11-10T20:36:57.415Z,12.97
2018-11-10T20:39:24.680Z,12.99
2018-11-10T20:41:51.967Z,13.03
2018-11-10T20:44:19.240Z,12.98
2018-11-10T20:46:46.482Z,12.84
2018-11-10T20:49:16.060Z,12.88
2018-11-10T20:51:43.369Z,12.91
2018-11-10T20:54:10.652Z,12.90
2018-11-10T20:56:37.969Z,12.91
2018-11-10T20:59:05.260Z,12.84
2018-11-10T21:01:32.538Z,12.83
2018-11-10T21:03:59.817Z,12.81
2018-11-10T21:06:27.157Z,12.73
2018-11-10T21:08:54.558Z,12.58
2018-11-10T21:11:21.806Z,12.48
2018-11-10T21:13:49.812Z,12.46
2018-11-10T21:16:17.248Z,12.50
2018-11-10T21:18:44.618Z,12.50
2018-11-10T21:21:12.011Z,12.53
2018-11-10T21:23:39.183Z,12.51
2018-11-10T21:26:06.386Z,12.52
2018-11-10T21:28:33.736Z,12.54
2018-11-10T21:31:01.012Z,12.48
2018-11-10T21:33:28.377Z,12.48
2018-11-10T21:35:55.844Z,12.50
2018-11-10T21:38:23.261Z,12.34
2018-11-10T21:40:50.601Z,12.32
2018-11-10T21:43:17.923Z,12.40
2018-11-10T21:45:45.172Z,12.41
2018-11-10T21:48:12.388Z,12.43
2018-11-10T21:50:39.713Z,12.47
2018-11-10T21:53:07.085Z,12.58
2018-11-10T21:55:34.346Z,12.61
2018-11-10T21:58:01.667Z,12.72
2018-11-10T22:00:28.913Z,12.66
2018-11-10T22:02:56.111Z,12.58
2018-11-10T22:05:23.380Z,12.59
2018-11-10T22:07:50.678Z,12.56
2018-11-10T22:10:18.674Z,12.63
2018-11-10T22:12:46.154Z,12.63
2018-11-10T22:15:16.411Z,12.56
2018-11-10T22:17:44.283Z,12.60
2018-11-10T22:20:13.643Z,12.54
2018-11-10T22:22:41.018Z,12.45
2018-11-10T22:25:09.450Z,12.42
2018-11-10T22:27:37.614Z,12.38
2018-11-10T22:30:05.653Z,12.37
2018-11-10T22:32:32.996Z,12.33
2018-11-10T22:35:00.369Z,12.31
2018-11-10T22:37:27.713Z,12.30
2018-11-10T22:39:55.034Z,12.37
2018-11-10T22:42:22.444Z,12.46
2018-11-10T22:44:49.725Z,12.56
2018-11-10T22:47:17.077Z,12.62
2018-11-10T22:49:44.391Z,12.66
2018-11-10T22:52:11.713Z,12.68
2018-11-10T22:54:38.954Z,12.77
2018-11-10T22:57:06.255Z,12.77
2018-11-10T22:59:33.622Z,12.74
2018-11-10T23:02:01.048Z,12.75
2018-11-10T23:04:28.474Z,12.71
2018-11-10T23:06:56.708Z,12.69
2018-11-10T23:09:24.097Z,12.73
2018-11-10T23:11:51.398Z,12.76
2018-11-10T23:14:18.953Z,12.77
2018-11-10T23:16:46.451Z,12.83
2018-11-10T23:19:13.876Z,12.83
2018-11-10T23:21:41.292Z,12.78
2018-11-10T23:24:08.639Z,12.76
2018-11-10T23:26:36.031Z,12.75
2018-11-10T23:29:03.333Z,12.75
2018-11-10T23:31:30.641Z,12.75
2018-11-10T23:33:57.923Z,12.79
2018-11-10T23:36:25.220Z,12.76
2018-11-10T23:38:52.460Z,12.74
2018-11-10T23:41:19.714Z,12.67
2018-11-10T23:43:46.959Z,12.53
2018-11-10T23:46:14.205Z,12.54
2018-11-10T23:48:41.483Z,12.20
2018-11-10T23:51:08.771Z,12.40
2018-11-10T23:53:36.075Z,12.38
2018-11-10T23:56:03.420Z,12.32
2018-11-10T23:58:30.667Z,12.35
